Time;durP1;ratioP1;P1;durP2;ratioP2;P2;SDS_P1;SDS_P2;PMS_P1;PMS_P2;Temp;Humidity;BMP_temperature;BMP_pressure;BME280_temperature;BME280_humidity;BME280_pressure;Samples;Min_cycle;Max_cycle;Signal;HPM_P1;HPM_P2
2023/10/14 00:03:15;;;;;;;;;;;16.50;99.90;;;;;;20989218;28;19924;-79
2023/10/14 00:13:17;;;;;;;;;;;16.70;99.90;;;;;;20996082;28;19916;-79
2023/10/14 00:23:18;;;;;;;;;;;16.70;99.90;;;;;;20988522;28;19923;-76
2023/10/14 00:33:20;;;;;;;;;;;16.80;99.90;;;;;;20966861;28;19978;-77
2023/10/14 00:43:21;;;;;;;;;;;16.60;99.90;;;;;;20978443;28;20338;-80
2023/10/14 00:53:21;;;;;;;;;;;16.70;99.90;;;;;;20982031;28;20009;-78
2023/10/14 01:03:23;;;;;;;;;;;16.70;99.90;;;;;;20980484;28;20418;-78
2023/10/14 01:13:23;;;;;;;;;;;17.60;99.90;;;;;;20978564;28;19923;-78
2023/10/14 01:23:26;;;;;;;;;;;17.20;99.90;;;;;;20959362;28;19956;-78
2023/10/14 01:33:27;;;;;;;;;;;17.00;99.90;;;;;;20949681;28;19923;-78
2023/10/14 01:43:30;;;;;;;;;;;16.70;99.90;;;;;;20962124;28;19925;-78
2023/10/14 01:53:36;;;;;;;;;;;16.30;99.90;;;;;;20965636;28;19927;-78
2023/10/14 02:03:44;;;;;;;;;;;16.20;99.90;;;;;;20951327;28;19916;-78
2023/10/14 02:13:44;;;;;;;;;;;16.20;99.90;;;;;;20948820;28;19940;-78
2023/10/14 02:23:45;;;;;;;;;;;16.30;99.90;;;;;;20970436;28;19917;-78
2023/10/14 02:33:46;;;;;;;;;;;16.20;99.90;;;;;;20979793;28;20485;-79
2023/10/14 02:43:49;;;;;;;;;;;16.00;99.90;;;;;;20963117;28;20415;-79
2023/10/14 02:53:50;;;;;;;;;;;16.10;99.90;;;;;;20994113;28;19919;-79
2023/10/14 03:03:50;;;;;;;;;;;16.10;99.90;;;;;;20978839;28;20320;-78
2023/10/14 03:13:52;;;;;;;;;;;15.90;99.90;;;;;;20976843;28;19917;-78
2023/10/14 03:23:56;;;;;;;;;;;16.00;99.90;;;;;;20974146;28;20058;-78
2023/10/14 03:33:58;;;;;;;;;;;16.00;99.90;;;;;;20998775;28;19930;-77
2023/10/14 03:43:59;;;;;;;;;;;16.20;99.90;;;;;;21008632;28;20379;-78
2023/10/14 03:54:08;;;;;;;;;;;16.30;99.90;;;;;;20977832;28;20010;-78
2023/10/14 04:04:18;;;;;;;;;;;16.00;99.90;;;;;;20975190;28;19929;-78
2023/10/14 04:14:27;;;;;;;;;;;15.90;99.90;;;;;;20956198;28;19917;-79
2023/10/14 04:34:29;;;;;;;;;;;16.00;99.90;;;;;;20982365;28;20011;-78
2023/10/14 04:44:37;;;;;;;;;;;16.00;99.90;;;;;;20967044;28;19928;-79
2023/10/14 04:54:51;;;;;;;;;;;15.90;99.90;;;;;;20979343;28;19912;-80
2023/10/14 05:04:52;;;;;;;;;;;15.90;99.90;;;;;;20972081;28;19956;-78
2023/10/14 05:14:55;;;;;;;;;;;15.90;99.90;;;;;;21003537;28;19965;-78
2023/10/14 05:25:03;;;;;;;;;;;15.80;99.90;;;;;;20968466;28;20297;-78
2023/10/14 05:35:09;;;;;;;;;;;15.80;99.90;;;;;;20980170;28;20011;-78
2023/10/14 05:45:11;;;;;;;;;;;15.70;99.90;;;;;;20983314;28;19970;-78
2023/10/14 05:55:12;;;;;;;;;;;15.70;99.90;;;;;;20965357;28;20333;-78
2023/10/14 06:05:13;;;;;;;;;;;15.80;99.90;;;;;;20955732;28;20003;-78
2023/10/14 06:15:17;;;;;;;;;;;15.80;99.90;;;;;;20992509;28;19920;-77
2023/10/14 06:25:20;;;;;;;;;;;15.80;99.90;;;;;;20990677;28;19916;-78
2023/10/14 06:35:21;;;;;;;;;;;15.90;99.90;;;;;;20945658;28;19913;-77
2023/10/14 06:45:22;;;;;;;;;;;15.90;99.90;;;;;;20992014;28;19921;-77
2023/10/14 06:55:22;;;;;;;;;;;16.00;99.90;;;;;;20980388;28;19944;-78
2023/10/14 07:05:23;;;;;;;;;;;16.00;99.90;;;;;;20991647;28;19924;-77
2023/10/14 07:15:25;;;;;;;;;;;16.10;99.90;;;;;;20949984;28;19924;-77
2023/10/14 07:25:26;;;;;;;;;;;16.20;99.90;;;;;;20963116;28;19991;-78
2023/10/14 07:35:27;;;;;;;;;;;16.20;99.90;;;;;;20994377;28;19912;-78
2023/10/14 07:45:33;;;;;;;;;;;16.10;99.90;;;;;;20995562;28;20267;-77
2023/10/14 07:55:40;;;;;;;;;;;16.20;99.90;;;;;;20970543;28;19920;-78
2023/10/14 08:05:43;;;;;;;;;;;16.50;99.90;;;;;;20981448;28;20330;-78
2023/10/14 08:15:44;;;;;;;;;;;16.80;99.90;;;;;;20963008;28;20494;-77
2023/10/14 08:25:46;;;;;;;;;;;17.30;99.90;;;;;;20977492;28;19956;-77
2023/10/14 08:35:48;;;;;;;;;;;17.70;99.90;;;;;;20985509;28;19912;-79
2023/10/14 08:45:48;;;;;;;;;;;17.40;99.90;;;;;;20966770;28;19920;-79
2023/10/14 08:55:52;;;;;;;;;;;17.60;99.90;;;;;;20951646;28;19938;-79
2023/10/14 09:05:52;;;;;;;;;;;17.70;99.90;;;;;;20988180;28;20393;-77
2023/10/14 09:15:56;;;;;;;;;;;17.80;99.90;;;;;;21009036;28;19916;-77
2023/10/14 09:25:58;;;;;;;;;;;17.60;99.90;;;;;;20980103;28;20038;-77
2023/10/14 09:36:02;;;;;;;;;;;17.40;99.90;;;;;;20977063;28;19920;-80
2023/10/14 09:46:08;;;;;;;;;;;17.40;99.90;;;;;;20999428;28;19997;-79
2023/10/14 09:56:10;;;;;;;;;;;17.20;99.90;;;;;;20983896;28;19916;-79
2023/10/14 10:06:16;;;;;;;;;;;16.80;99.90;;;;;;21011438;28;20447;-79
2023/10/14 10:16:20;;;;;;;;;;;16.70;99.90;;;;;;21018506;28;19912;-79
2023/10/14 10:26:23;;;;;;;;;;;16.40;99.90;;;;;;21004071;28;19923;-78
2023/10/14 10:36:32;;;;;;;;;;;16.30;99.90;;;;;;21015576;28;19921;-79
2023/10/14 10:46:38;;;;;;;;;;;16.50;99.90;;;;;;21005799;28;19923;-78
2023/10/14 10:56:41;;;;;;;;;;;16.60;99.90;;;;;;21019312;28;19920;-79
2023/10/14 11:06:41;;;;;;;;;;;17.10;99.90;;;;;;21004314;28;19923;-78
2023/10/14 11:16:44;;;;;;;;;;;18.40;99.90;;;;;;21033975;28;20395;-78
2023/10/14 11:26:45;;;;;;;;;;;20.10;99.90;;;;;;21034202;28;19978;-78
2023/10/14 11:36:48;;;;;;;;;;;19.70;99.90;;;;;;21037287;28;19912;-79
2023/10/14 11:46:50;;;;;;;;;;;19.60;99.90;;;;;;21004775;28;19917;-78
2023/10/14 11:56:51;;;;;;;;;;;19.70;99.90;;;;;;21030041;28;19913;-78
2023/10/14 12:06:52;;;;;;;;;;;20.40;99.90;;;;;;20988831;28;19924;-78
2023/10/14 12:16:52;;;;;;;;;;;20.60;99.90;;;;;;21027427;28;19923;-77
2023/10/14 12:26:53;;;;;;;;;;;19.90;99.90;;;;;;21024530;28;19916;-77
2023/10/14 12:36:54;;;;;;;;;;;18.40;99.90;;;;;;20999613;28;19913;-78
2023/10/14 12:46:54;;;;;;;;;;;17.60;99.90;;;;;;20979082;28;19942;-78
2023/10/14 12:56:56;;;;;;;;;;;16.90;99.90;;;;;;21009231;28;19912;-78
2023/10/14 13:06:57;;;;;;;;;;;15.90;99.90;;;;;;21006075;28;19924;-77
2023/10/14 13:16:58;;;;;;;;;;;15.90;99.90;;;;;;20984450;28;19948;-78
2023/10/14 13:26:59;;;;;;;;;;;15.80;99.90;;;;;;20978639;28;19924;-82
2023/10/14 13:37:00;;;;;;;;;;;15.60;99.90;;;;;;20977107;28;19916;-78
2023/10/14 13:47:04;;;;;;;;;;;15.40;99.90;;;;;;20962515;28;19924;-79
2023/10/14 13:57:05;;;;;;;;;;;14.90;99.90;;;;;;20983704;28;19918;-82
2023/10/14 14:07:06;;;;;;;;;;;14.20;99.90;;;;;;21011896;28;20395;-78
2023/10/14 14:17:07;;;;;;;;;;;14.10;99.90;;;;;;21018201;28;19913;-80
2023/10/14 14:27:07;;;;;;;;;;;14.00;99.90;;;;;;21045887;28;19982;-81
2023/10/14 14:37:08;;;;;;;;;;;13.70;99.90;;;;;;21044647;28;19912;-81
2023/10/14 14:47:09;;;;;;;;;;;14.00;99.90;;;;;;21063326;28;19922;-79
2023/10/14 14:57:10;;;;;;;;;;;14.10;99.90;;;;;;21057349;28;19913;-79
2023/10/14 15:07:10;;;;;;;;;;;14.00;99.90;;;;;;21051530;28;20384;-83
2023/10/14 15:17:11;;;;;;;;;;;14.10;99.90;;;;;;21038538;28;19916;-80
2023/10/14 15:27:12;;;;;;;;;;;13.60;99.90;;;;;;21048298;28;19917;-80
2023/10/14 15:37:13;;;;;;;;;;;13.40;99.90;;;;;;21054158;28;20287;-79
2023/10/14 15:47:14;;;;;;;;;;;13.30;99.90;;;;;;21063831;28;19924;-80
2023/10/14 15:57:14;;;;;;;;;;;13.20;99.90;;;;;;21019095;28;19921;-78
2023/10/14 16:07:15;;;;;;;;;;;12.90;99.90;;;;;;21038167;28;19917;-78
2023/10/14 16:17:16;;;;;;;;;;;12.80;99.90;;;;;;21031622;28;19932;-77
2023/10/14 16:27:17;;;;;;;;;;;12.60;99.90;;;;;;21025124;28;20383;-78
2023/10/14 16:37:18;;;;;;;;;;;12.60;99.90;;;;;;21005028;28;19925;-78
2023/10/14 16:47:23;;;;;;;;;;;12.50;99.90;;;;;;21010699;28;20007;-78
2023/10/14 16:57:24;;;;;;;;;;;12.40;99.90;;;;;;21014323;28;19921;-78
2023/10/14 17:07:25;;;;;;;;;;;12.40;99.90;;;;;;21011685;28;19935;-78
2023/10/14 17:17:26;;;;;;;;;;;12.20;99.90;;;;;;20993614;28;19916;-78
2023/10/14 17:27:27;;;;;;;;;;;12.20;99.90;;;;;;20974940;28;19951;-77
2023/10/14 17:37:28;;;;;;;;;;;12.10;99.90;;;;;;20977586;28;19962;-78
2023/10/14 17:47:29;;;;;;;;;;;12.10;99.90;;;;;;20982591;28;20574;-78
2023/10/14 17:57:30;;;;;;;;;;;12.10;99.90;;;;;;20970276;28;20303;-78
2023/10/14 18:07:32;;;;;;;;;;;12.10;99.90;;;;;;20992625;28;19966;-78
2023/10/14 18:17:33;;;;;;;;;;;12.00;99.90;;;;;;20998765;28;19912;-78
2023/10/14 18:27:33;;;;;;;;;;;12.00;99.90;;;;;;21006302;28;19947;-78
2023/10/14 18:37:34;;;;;;;;;;;12.00;99.90;;;;;;21046896;28;19912;-79
2023/10/14 18:47:36;;;;;;;;;;;12.00;99.90;;;;;;21023156;28;20383;-79
2023/10/14 18:57:37;;;;;;;;;;;12.00;99.90;;;;;;20997984;28;19966;-78
2023/10/14 19:07:40;;;;;;;;;;;12.00;99.90;;;;;;21022208;28;19921;-79
2023/10/14 19:17:42;;;;;;;;;;;11.90;99.90;;;;;;21032578;28;19912;-78
2023/10/14 19:27:43;;;;;;;;;;;11.90;99.90;;;;;;21027648;28;20294;-78
2023/10/14 19:37:44;;;;;;;;;;;11.80;99.90;;;;;;21064816;28;19916;-79
2023/10/14 19:47:47;;;;;;;;;;;11.50;99.90;;;;;;21070998;28;20402;-79
2023/10/14 19:57:54;;;;;;;;;;;11.40;99.90;;;;;;21070870;28;20378;-79
2023/10/14 20:08:01;;;;;;;;;;;11.30;99.90;;;;;;21065844;28;19919;-78
2023/10/14 20:18:03;;;;;;;;;;;11.20;99.90;;;;;;21068837;28;20325;-80
2023/10/14 20:28:04;;;;;;;;;;;11.00;99.90;;;;;;21069774;28;19920;-78
2023/10/14 20:38:10;;;;;;;;;;;10.40;99.90;;;;;;21068555;28;20016;-78
2023/10/14 20:48:13;;;;;;;;;;;10.30;99.90;;;;;;21070050;28;20565;-78
2023/10/14 20:58:14;;;;;;;;;;;10.40;99.90;;;;;;21068553;28;19920;-78
2023/10/14 21:08:16;;;;;;;;;;;10.30;99.90;;;;;;21065450;28;19912;-78
2023/10/14 21:18:16;;;;;;;;;;;10.40;99.90;;;;;;21068048;28;19956;-78
2023/10/14 21:28:17;;;;;;;;;;;10.50;99.90;;;;;;21056997;28;19924;-78
2023/10/14 21:38:17;;;;;;;;;;;10.50;99.90;;;;;;21055803;28;19920;-78
2023/10/14 21:48:19;;;;;;;;;;;10.50;99.90;;;;;;21050271;28;19944;-79
2023/10/14 21:58:22;;;;;;;;;;;10.50;99.90;;;;;;21066880;28;20292;-79
2023/10/14 22:08:24;;;;;;;;;;;10.60;99.90;;;;;;21070203;28;20047;-79
2023/10/14 22:18:26;;;;;;;;;;;10.40;99.90;;;;;;21063724;28;20019;-78
2023/10/14 22:28:26;;;;;;;;;;;10.40;99.90;;;;;;21067502;28;19923;-78
2023/10/14 22:38:28;;;;;;;;;;;10.30;99.90;;;;;;21063108;28;19916;-78
2023/10/14 22:48:29;;;;;;;;;;;10.40;99.90;;;;;;21064973;28;19912;-78
2023/10/14 22:58:30;;;;;;;;;;;10.50;99.90;;;;;;21079317;28;20050;-79
2023/10/14 23:08:31;;;;;;;;;;;10.50;99.90;;;;;;21073160;28;19913;-78
2023/10/14 23:18:33;;;;;;;;;;;10.50;99.90;;;;;;21071046;28;20505;-78
2023/10/14 23:28:33;;;;;;;;;;;10.20;99.90;;;;;;21068973;28;19923;-78
2023/10/14 23:38:37;;;;;;;;;;;10.00;99.90;;;;;;21070116;28;19915;-78
2023/10/14 23:48:38;;;;;;;;;;;9.90;99.90;;;;;;21062344;28;19935;-78
2023/10/14 23:58:39;;;;;;;;;;;10.00;99.90;;;;;;21063361;28;19916;-78
